Date,TemperatureHighF,TemperatureAvgF,TemperatureLowF,DewpointHighF,DewpointAvgF,DewpointLowF,HumidityHigh,HumidityAvg,HumidityLow,PressureMaxIn,PressureMinIn,WindSpeedMaxMPH,WindSpeedAvgMPH,GustSpeedMaxMPH,PrecipitationSumIn
2013-10-1,137.3,59.1,28.6,99.4,32.3,-34.9,71,40,26,29.88,29.77,0,0,1,0.00
2013-10-2,118.6,58.3,46.0,58.6,35.6,7.6,83,48,24,29.82,29.72,0,0,1,0.00
2013-10-3,137.3,54.6,31.3,88.7,34.3,-1.9,99,58,18,29.73,29.55,0,0,1,0.00
2013-10-4,94.5,32.4,-0.6,88.0,30.9,-15.9,99,94,81,29.87,29.56,11,2,32,0.13
2013-10-5,70.7,35.9,16.5,52.0,14.7,-1.9,92,51,14,29.94,29.84,0,0,1,0.06
2013-10-6,67.3,48.8,27.1,33.9,14.8,-15.0,55,30,14,30.01,29.93,0,0,1,0.00
2013-10-7,115.2,57.4,12.2,39.8,16.3,-19.1,39,25,10,29.98,29.79,0,0,2,0.00
2013-10-8,70.2,60.0,44.8,30.6,16.3,0.7,48,23,10,29.79,29.61,0,0,1,0.00
2013-10-9,50.2,47.8,45.5,29.4,27.0,25.3,53,46,42,29.70,29.67,0,0,0,0.00
2013-10-10,65.7,40.7,37.9,50.0,33.1,22.2,96,75,48,29.75,29.41,0,0,1,0.15
2013-10-11,60.3,43.8,37.4,38.2,29.7,23.1,93,62,33,29.82,29.42,0,0,1,0.05
2013-10-12,51.1,40.7,27.3,48.0,35.4,22.6,97,82,61,29.91,29.81,4,0,17,0.01
2013-10-13,63.3,45.2,27.7,55.0,37.9,25.7,97,78,49,29.89,29.71,8,0,15,0.08
2013-10-14,54.9,41.8,28.8,44.2,35.6,23.6,99,81,40,29.87,29.63,8,0,22,0.02
2013-10-15,39.4,29.0,22.6,31.4,23.6,18.3,92,80,67,29.94,29.85,2,0,8,0.00
2013-10-16,51.3,34.2,25.5,34.9,24.1,18.1,99,72,35,29.88,29.74,0,0,1,0.00
2013-10-17,50.0,37.7,30.6,29.8,24.6,18.2,86,62,40,29.82,29.72,0,0,1,0.00
2013-10-18,36.3,29.2,23.4,27.9,25.0,22.4,97,85,64,29.86,29.73,0,0,1,0.06
2013-10-19,56.7,40.2,25.2,27.0,20.3,15.7,92,51,24,29.84,29.72,0,0,1,0.01
2013-10-20,43.3,36.2,27.0,33.2,25.1,15.8,99,69,39,29.85,29.70,0,0,1,0.00
2013-10-21,48.9,36.0,25.2,32.7,25.1,18.9,99,70,35,29.92,29.84,0,0,1,0.04
2013-10-22,37.2,35.9,34.5,24.9,22.8,21.9,65,59,56,29.91,29.89,0,0,0,0.00
2013-10-26,56.1,44.1,34.0,34.3,30.2,24.1,87,60,29,30.05,29.91,0,0,1,0.00
2013-10-27,62.1,48.2,37.0,30.3,20.8,14.5,64,37,16,29.91,29.67,0,0,0,0.00
2013-10-28,45.5,35.2,28.8,31.4,26.6,17.6,98,76,33,29.75,29.68,0,0,1,0.00
2013-10-29,54.7,36.1,23.4,33.5,28.1,21.4,99,78,29,29.70,29.62,0,0,0,0.02
2013-10-30,50.4,35.6,26.6,32.7,26.4,18.6,99,75,30,29.63,29.56,0,0,1,0.00
2013-10-31,50.4,34.7,23.5,26.4,18.3,14.7,97,55,24,29.68,29.57,0,0,1,0.00